Time;durP1;ratioP1;P1;durP2;ratioP2;P2;SDS_P1;SDS_P2;PMS_P1;PMS_P2;Temp;Humidity;BMP_temperature;BMP_pressure;BME280_temperature;BME280_humidity;BME280_pressure;Samples;Min_cycle;Max_cycle;Signal;HPM_P1;HPM_P2
2023/02/05 00:06:08;;;;;;;12.10;4.88;;;;;;;;;;6132029;22;1637612;-76
2023/02/05 00:08:40;;;;;;;16.05;5.63;;;;;;;;;;6060168;23;20581;-76
2023/02/05 00:28:54;;;;;;;15.05;4.95;;;;;;;;;;5047421;27;20778;-72
2023/02/05 00:31:22;;;;;;;14.85;5.28;;;;;;;;;;4950500;28;20069;-75
2023/02/05 00:33:54;;;;;;;16.13;5.55;;;;;;;;;;4952546;28;20052;-73
2023/02/05 00:36:22;;;;;;;19.08;5.70;;;;;;;;;;4949018;28;20050;-74
2023/02/05 00:38:49;;;;;;;14.20;4.80;;;;;;;;;;4987776;28;20401;-74
2023/02/05 00:41:21;;;;;;;12.35;5.22;;;;;;;;;;4937424;28;20061;-73
2023/02/05 00:49:19;;;;;;;10.82;4.75;;;;;;;;;;5064680;27;20470;-73
2023/02/05 00:52:03;;;;;;;14.27;5.88;;;;;;;;;;4927935;28;20057;-75
2023/02/05 00:54:35;;;;;;;12.93;5.88;;;;;;;;;;4893456;29;20059;-75
2023/02/05 01:00:03;;;;;;;15.68;5.10;;;;;;;;;;4864591;29;20064;-73
2023/02/05 01:02:39;;;;;;;13.85;5.85;;;;;;;;;;4861345;29;20148;-75
2023/02/05 01:20:06;;;;;;;16.17;5.97;;;;;;;;;;4976153;27;20539;-75
2023/02/05 01:22:43;;;;;;;16.58;6.22;;;;;;;;;;4923265;28;20069;-77
2023/02/05 01:30:52;;;;;;;15.25;6.40;;;;;;;;;;5035463;27;20517;-76
2023/02/05 01:33:42;;;;;;;17.40;6.78;;;;;;;;;;4944672;28;20106;-73
2023/02/05 01:39:16;;;;;;;19.15;6.78;;;;;;;;;;4958437;27;1589991;-75
2023/02/05 01:41:44;;;;;;;17.75;7.03;;;;;;;;;;4941557;28;20102;-73
2023/02/05 01:44:24;;;;;;;;;;;;;;;;;;;;;
2023/02/05 01:52:19;;;;;;;23.08;7.75;;;;;;;;;;5002737;27;20429;-75
2023/02/05 01:54:52;;;;;;;17.02;6.88;;;;;;;;;;4936168;28;20057;-72
2023/02/05 02:13:17;;;;;;;18.63;8.05;;;;;;;;;;5035784;27;20453;-76
2023/02/05 02:16:34;;;;;;;19.15;7.05;;;;;;;;;;4953361;28;20052;-74
2023/02/05 02:24:27;;;;;;;18.63;7.32;;;;;;;;;;5013887;27;20446;-73
2023/02/05 02:32:16;;;;;;;20.75;7.75;;;;;;;;;;5012521;27;20466;-74
2023/02/05 02:34:51;;;;;;;20.52;8.30;;;;;;;;;;4918502;28;20114;-73
2023/02/05 02:42:53;;;;;;;21.40;8.50;;;;;;;;;;4955518;27;20455;-74
2023/02/05 02:53:46;;;;;;;23.60;8.70;;;;;;;;;;5022412;23;20161;-71
2023/02/05 02:56:26;;;;;;;22.15;8.48;;;;;;;;;;4892500;28;20630;-73
2023/02/05 03:08:50;;;;;;;22.67;8.55;;;;;;;;;;4930927;27;20480;-72
2023/02/05 03:11:19;;;;;;;19.85;8.13;;;;;;;;;;4927376;28;20165;-72
2023/02/05 03:13:46;;;;;;;20.20;8.80;;;;;;;;;;4957590;28;20065;-72
2023/02/05 03:16:26;;;;;;;;;;;;;;;;;;;;;
2023/02/05 03:19:07;;;;;;;20.73;8.70;;;;;;;;;;4858305;29;20550;-73
2023/02/05 03:21:36;;;;;;;20.40;8.82;;;;;;;;;;4859782;28;20126;-72
2023/02/05 03:24:13;;;;;;;19.13;8.45;;;;;;;;;;4916910;28;20098;-72
2023/02/05 03:26:41;;;;;;;22.27;9.57;;;;;;;;;;4926255;28;20085;-73
2023/02/05 03:29:17;;;;;;;20.15;8.80;;;;;;;;;;4913264;28;20061;-74
2023/02/05 03:31:49;;;;;;;21.60;8.45;;;;;;;;;;4899041;28;20062;-71
2023/02/05 03:34:34;;;;;;;22.63;8.75;;;;;;;;;;4931164;28;20133;-74
2023/02/05 03:37:12;;;;;;;20.75;8.45;;;;;;;;;;4952902;28;20045;-72
2023/02/05 03:39:49;;;;;;;19.45;8.52;;;;;;;;;;4932636;28;20077;-73
2023/02/05 03:45:16;;;;;;;18.85;8.25;;;;;;;;;;5032863;27;20447;-71
2023/02/05 03:47:59;;;;;;;21.23;8.70;;;;;;;;;;5003977;28;20143;-72
2023/02/05 03:50:29;;;;;;;18.35;8.55;;;;;;;;;;4959477;28;20049;-73
2023/02/05 03:58:10;;;;;;;19.02;7.72;;;;;;;;;;5057972;27;20451;-74
2023/02/05 04:00:37;;;;;;;20.88;7.97;;;;;;;;;;5032271;28;20052;-72
2023/02/05 04:03:08;;;;;;;21.33;8.82;;;;;;;;;;5023338;28;20137;-75
2023/02/05 04:05:35;;;;;;;20.15;8.57;;;;;;;;;;4972562;28;20057;-74
2023/02/05 04:08:05;;;;;;;22.40;9.25;;;;;;;;;;4929830;28;20050;-72
2023/02/05 04:10:31;;;;;;;21.17;8.13;;;;;;;;;;4910885;28;20055;-74
2023/02/05 04:15:43;;;;;;;20.10;8.35;;;;;;;;;;5057310;27;20451;-76
2023/02/05 04:18:20;;;;;;;17.88;7.95;;;;;;;;;;4946242;28;20047;-76
2023/02/05 04:26:31;;;;;;;19.73;7.63;;;;;;;;;;4997117;27;20429;-72
2023/02/05 04:34:10;;;;;;;19.20;8.73;;;;;;;;;;4989358;27;20445;-74
2023/02/05 04:36:39;;;;;;;19.83;8.15;;;;;;;;;;4989491;28;20057;-72
2023/02/05 04:39:13;;;;;;;20.63;8.15;;;;;;;;;;4970925;28;20056;-72
2023/02/05 04:41:47;;;;;;;;;;;;;;;;;;4924432;28;20082;-74
2023/02/05 04:44:14;;;;;;;18.85;7.18;;;;;;;;;;4916906;28;20073;-72
2023/02/05 04:46:43;;;;;;;20.23;7.35;;;;;;;;;;4917817;28;20063;-72
2023/02/05 04:49:14;;;;;;;16.80;7.35;;;;;;;;;;4923066;28;20047;-73
2023/02/05 04:57:23;;;;;;;18.63;7.38;;;;;;;;;;4986997;27;20467;-75
2023/02/05 05:05:12;;;;;;;15.85;7.18;;;;;;;;;;5066266;27;20463;-75
2023/02/05 05:07:42;;;;;;;16.08;7.10;;;;;;;;;;4996013;28;20099;-75
2023/02/05 05:13:17;;;;;;;15.30;7.22;;;;;;;;;;5034404;27;20439;-74
2023/02/05 05:21:10;;;;;;;17.67;6.95;;;;;;;;;;4980229;27;20482;-74
2023/02/05 06:43:56;;;;;;;4.95;1.77;;;;;;;;;;6091732;22;2265545;-75
2023/02/05 06:46:24;;;;;;;6.75;1.80;;;;;;;;;;6121572;23;20025;-73
2023/02/05 06:54:05;;;;;;;7.22;1.67;;;;;;;;;;4999073;27;20427;-76
2023/02/05 07:02:23;;;;;;;6.88;1.00;;;;;;;;;;5011714;27;20555;-78
2023/02/05 09:43:26;;;;;;;11.50;1.33;;;;;;;;;;4974701;27;20478;-77
2023/02/05 09:48:55;;;;;;;11.77;1.60;;;;;;;;;;5044223;27;20139;-74
2023/02/05 10:07:57;;;;;;;10.63;1.75;;;;;;;;;;5838414;22;10104541;-75
2023/02/05 10:10:43;;;;;;;13.95;1.85;;;;;;;;;;6106997;23;20049;-74
2023/02/05 10:43:21;;;;;;;8.85;1.55;;;;;;;;;;5752408;22;10736130;-76
2023/02/05 11:00:36;;;;;;;19.73;1.83;;;;;;;;;;4953362;27;20448;-72
2023/02/05 11:03:24;;;;;;;14.07;1.70;;;;;;;;;;4932139;28;20064;-74
2023/02/05 11:22:02;;;;;;;10.52;1.50;;;;;;;;;;6154578;22;1583970;-74
2023/02/05 11:24:42;;;;;;;12.48;2.10;;;;;;;;;;5922302;23;20202;-74
2023/02/05 11:27:49;;;;;;;12.25;1.63;;;;;;;;;;5918640;24;20444;-72
2023/02/05 12:00:52;;;;;;;12.35;1.50;;;;;;;;;;5551875;22;17982213;-74
2023/02/05 12:03:37;;;;;;;15.60;1.90;;;;;;;;;;6043878;23;20022;-74
2023/02/05 12:12:20;;;;;;;;;;;;;;;;;;;;;
2023/02/05 12:33:19;;;;;;;21.63;2.65;;;;;;;;;;5961727;22;4785531;-71
2023/02/05 12:36:00;;;;;;;15.00;2.13;;;;;;;;;;5945693;23;20028;-74
2023/02/05 12:43:45;;;;;;;15.55;1.85;;;;;;;;;;4996628;27;20448;-76
2023/02/05 12:46:33;;;;;;;21.40;2.50;;;;;;;;;;4963396;28;20046;-74
2023/02/05 12:49:13;;;;;;;17.08;2.10;;;;;;;;;;4971210;28;20062;-73
2023/02/05 12:54:56;;;;;;;16.15;2.67;;;;;;;;;;4975149;27;20427;-73
2023/02/05 13:11:43;;;;;;;17.98;2.20;;;;;;;;;;5025840;27;20849;-71
2023/02/05 14:31:50;;;;;;;19.98;1.80;;;;;;;;;;6059455;22;1597042;-71
2023/02/05 14:53:36;;;;;;;12.50;1.90;;;;;;;;;;5872381;22;10266270;-70
2023/02/05 14:56:11;;;;;;;19.98;2.33;;;;;;;;;;6094607;23;20056;-71
2023/02/05 14:58:49;;;;;;;12.90;1.20;;;;;;;;;;6099825;23;20031;-70
2023/02/05 15:01:36;;;;;;;19.52;2.00;;;;;;;;;;6028921;23;20040;-71
2023/02/05 15:04:04;;;;;;;14.48;1.95;;;;;;;;;;6096374;23;20026;-71
2023/02/05 15:06:33;;;;;;;15.50;2.20;;;;;;;;;;6027583;23;20033;-71
2023/02/05 15:09:11;;;;;;;13.25;2.00;;;;;;;;;;6044142;23;20022;-71
2023/02/05 15:12:12;;;;;;;16.63;2.47;;;;;;;;;;6014576;23;20256;-72
2023/02/05 15:14:52;;;;;;;19.83;2.40;;;;;;;;;;6020270;23;20037;-71
2023/02/05 15:23:00;;;;;;;12.02;1.88;;;;;;;;;;4932794;27;20513;-72
2023/02/05 15:30:48;;;;;;;10.93;1.92;;;;;;;;;;4984845;27;20437;-70
2023/02/05 15:33:17;;;;;;;18.15;1.95;;;;;;;;;;4843603;29;20190;-69
2023/02/05 15:41:17;;;;;;;8.80;1.42;;;;;;;;;;4845185;29;20055;-70
2023/02/05 15:43:57;;;;;;;14.10;2.00;;;;;;;;;;4845311;28;20151;-69
2023/02/05 15:46:30;;;;;;;16.30;2.30;;;;;;;;;;4859459;29;20063;-69
2023/02/05 15:48:58;;;;;;;14.50;2.28;;;;;;;;;;4935461;28;20050;-70
2023/02/05 15:51:28;;;;;;;11.07;1.40;;;;;;;;;;4927180;28;20066;-70
2023/02/05 15:54:13;;;;;;;12.55;1.88;;;;;;;;;;4878155;28;20104;-70
2023/02/05 15:56:43;;;;;;;16.08;2.00;;;;;;;;;;4886635;28;20056;-71
2023/02/05 15:59:13;;;;;;;11.23;1.42;;;;;;;;;;4926490;28;20092;-70
2023/02/05 16:01:55;;;;;;;16.92;2.65;;;;;;;;;;4987438;28;20046;-71
2023/02/05 16:04:30;;;;;;;17.50;1.50;;;;;;;;;;4964571;28;20070;-71
2023/02/05 16:06:58;;;;;;;14.85;2.15;;;;;;;;;;4881625;28;20061;-72
2023/02/05 16:09:26;;;;;;;15.40;1.55;;;;;;;;;;4878957;29;20068;-71
2023/02/05 16:12:00;;;;;;;15.80;1.60;;;;;;;;;;4916634;28;20284;-71
2023/02/05 16:14:32;;;;;;;23.88;2.17;;;;;;;;;;4904625;28;20106;-70
2023/02/05 16:17:04;;;;;;;15.98;2.08;;;;;;;;;;4890245;28;20065;-70
2023/02/05 16:19:35;;;;;;;16.90;2.45;;;;;;;;;;4910170;28;20149;-70
2023/02/05 16:22:07;;;;;;;15.43;2.22;;;;;;;;;;4885587;28;20055;-70
2023/02/05 16:24:41;;;;;;;24.80;2.15;;;;;;;;;;4920077;28;20145;-71
2023/02/05 16:27:11;;;;;;;17.55;3.38;;;;;;;;;;4944814;28;20077;-70
2023/02/05 16:29:43;;;;;;;17.25;2.55;;;;;;;;;;4988280;28;20057;-70
2023/02/05 16:32:21;;;;;;;22.80;2.15;;;;;;;;;;4964322;28;20066;-71
2023/02/05 16:34:49;;;;;;;16.13;1.85;;;;;;;;;;4938706;28;20102;-70
2023/02/05 16:37:34;;;;;;;15.10;2.03;;;;;;;;;;4844711;29;20075;-71
2023/02/05 16:40:11;;;;;;;25.13;3.00;;;;;;;;;;4840421;29;20061;-71
2023/02/05 16:42:41;;;;;;;7.70;1.60;;;;;;;;;;4803712;29;20077;-69
2023/02/05 16:45:23;;;;;;;19.60;3.13;;;;;;;;;;4814034;29;20053;-70
2023/02/05 16:48:08;;;;;;;9.82;1.70;;;;;;;;;;4819145;29;20324;-70
2023/02/05 16:50:37;;;;;;;10.70;2.03;;;;;;;;;;4786029;29;20072;-69
2023/02/05 16:53:12;;;;;;;15.15;1.65;;;;;;;;;;4782112;29;20064;-70
2023/02/05 16:55:42;;;;;;;16.48;2.25;;;;;;;;;;4842337;29;20061;-70
2023/02/05 16:58:14;;;;;;;20.98;2.30;;;;;;;;;;4814164;29;20061;-69
2023/02/05 17:00:57;;;;;;;17.35;2.25;;;;;;;;;;4853568;28;20059;-69
2023/02/05 17:03:26;;;;;;;12.77;2.53;;;;;;;;;;4923362;28;20054;-69
2023/02/05 17:06:12;;;;;;;11.15;2.00;;;;;;;;;;4905447;28;20073;-69
2023/02/05 17:08:39;;;;;;;14.07;1.80;;;;;;;;;;4973164;28;20072;-68
2023/02/05 17:11:07;;;;;;;19.33;2.17;;;;;;;;;;4970461;28;20127;-69
2023/02/05 17:13:39;;;;;;;18.25;2.30;;;;;;;;;;4998032;28;20064;-72
2023/02/05 17:16:29;;;;;;;8.27;1.63;;;;;;;;;;4987495;28;20057;-72
2023/02/05 17:19:00;;;;;;;18.88;1.85;;;;;;;;;;4943526;28;20049;-71
2023/02/05 17:21:41;;;;;;;15.93;2.33;;;;;;;;;;4966862;28;20065;-71
2023/02/05 17:29:35;;;;;;;15.38;2.13;;;;;;;;;;5013837;27;20497;-72
2023/02/05 17:32:05;;;;;;;19.48;2.38;;;;;;;;;;5003777;28;20122;-71
2023/02/05 17:34:31;;;;;;;13.90;1.73;;;;;;;;;;4968787;28;20048;-72
2023/02/05 17:37:00;;;;;;;22.45;2.70;;;;;;;;;;4990608;28;20064;-72
2023/02/05 17:39:27;;;;;;;22.45;2.72;;;;;;;;;;4917114;28;20054;-71
2023/02/05 17:42:06;;;;;;;18.45;2.38;;;;;;;;;;4992578;28;20053;-72
2023/02/05 17:44:42;;;;;;;12.82;2.22;;;;;;;;;;4968606;28;20118;-71
2023/02/05 17:52:25;;;;;;;9.18;2.10;;;;;;;;;;5037736;27;1659347;-72
2023/02/05 17:54:54;;;;;;;27.45;2.67;;;;;;;;;;5025400;28;20076;-71
2023/02/05 17:57:32;;;;;;;;;;;;;;;;;;;;;
2023/02/05 18:00:22;;;;;;;11.68;2.65;;;;;;;;;;4973517;28;20161;-71
2023/02/05 18:02:49;;;;;;;19.50;2.40;;;;;;;;;;4933304;28;20101;-70
2023/02/05 18:05:19;;;;;;;19.42;2.53;;;;;;;;;;4932089;28;20384;-72
2023/02/05 18:13:01;;;;;;;16.35;2.45;;;;;;;;;;4957288;27;20443;-72
2023/02/05 18:15:37;;;;;;;19.23;2.72;;;;;;;;;;4941111;28;20088;-70
2023/02/05 18:18:04;;;;;;;14.43;1.80;;;;;;;;;;4960431;28;20057;-71
2023/02/05 18:20:31;;;;;;;85.95;32.47;;;;;;;;;;4921925;28;20054;-71
2023/02/05 18:22:57;;;;;;;91.80;34.95;;;;;;;;;;4921045;28;20134;-71
2023/02/05 18:25:25;;;;;;;78.20;30.00;;;;;;;;;;4927762;28;20151;-71
2023/02/05 18:27:53;;;;;;;70.75;27.73;;;;;;;;;;4908996;28;20540;-72
2023/02/05 18:30:28;;;;;;;68.97;26.20;;;;;;;;;;4950266;28;20152;-72
2023/02/05 18:38:19;;;;;;;52.95;20.77;;;;;;;;;;4987738;27;1530094;-72
2023/02/05 18:40:48;;;;;;;51.67;18.70;;;;;;;;;;4942203;28;20058;-71
2023/02/05 18:43:15;;;;;;;48.15;16.85;;;;;;;;;;4926334;28;20260;-71
2023/02/05 18:45:43;;;;;;;45.53;16.80;;;;;;;;;;4922555;28;20153;-71
2023/02/05 18:48:10;;;;;;;40.42;15.45;;;;;;;;;;4889423;28;20052;-70
2023/02/05 18:50:43;;;;;;;41.53;15.18;;;;;;;;;;4910751;28;20151;-71
2023/02/05 18:58:49;;;;;;;31.10;12.40;;;;;;;;;;4955382;27;20140;-72
2023/02/05 19:11:42;;;;;;;27.67;9.00;;;;;;;;;;5018807;27;20477;-71
2023/02/05 19:14:15;;;;;;;36.60;9.48;;;;;;;;;;4953119;28;20144;-72
2023/02/05 19:16:54;;;;;;;29.45;8.20;;;;;;;;;;4938925;28;20051;-71
2023/02/05 19:22:11;;;;;;;37.92;8.30;;;;;;;;;;5016806;27;20551;-71
2023/02/05 19:24:42;;;;;;;25.60;7.03;;;;;;;;;;4882153;29;20139;-71
2023/02/05 19:27:15;;;;;;;25.70;7.70;;;;;;;;;;4859285;29;20120;-71
2023/02/05 19:34:42;;;;;;;21.48;6.90;;;;;;;;;;4836923;29;20061;-70
2023/02/05 19:37:12;;;;;;;23.42;6.45;;;;;;;;;;4860583;29;20060;-71
2023/02/05 19:44:52;;;;;;;22.55;6.03;;;;;;;;;;5022073;27;20443;-70
2023/02/05 19:47:21;;;;;;;18.52;5.53;;;;;;;;;;5027940;28;20140;-71
2023/02/05 19:49:50;;;;;;;20.33;4.82;;;;;;;;;;4995091;28;20084;-71
2023/02/05 19:52:23;;;;;;;19.55;4.53;;;;;;;;;;4920184;28;20055;-72
2023/02/05 19:54:51;;;;;;;21.00;4.80;;;;;;;;;;4852435;28;20059;-71
2023/02/05 19:57:18;;;;;;;24.27;5.97;;;;;;;;;;4981378;28;20056;-71
2023/02/05 19:59:47;;;;;;;24.45;4.85;;;;;;;;;;4984458;28;20115;-71
2023/02/05 20:02:19;;;;;;;23.05;4.93;;;;;;;;;;5000631;28;20080;-71
2023/02/05 20:12:33;;;;;;;18.35;3.88;;;;;;;;;;5052085;27;20478;-71
2023/02/05 20:15:02;;;;;;;16.58;4.72;;;;;;;;;;4930790;28;20050;-71
2023/02/05 20:17:34;;;;;;;21.05;4.45;;;;;;;;;;4957239;28;20100;-71
2023/02/05 20:25:10;;;;;;;17.55;3.70;;;;;;;;;;4992494;27;20474;-72
2023/02/05 20:27:42;;;;;;;16.73;3.35;;;;;;;;;;4948179;28;20049;-70
2023/02/05 20:32:37;;;;;;;13.32;3.50;;;;;;;;;;4896213;28;20122;-71
2023/02/05 20:35:08;;;;;;;22.15;4.22;;;;;;;;;;4871811;29;20070;-69
2023/02/05 20:37:39;;;;;;;17.10;3.75;;;;;;;;;;4944799;28;20055;-71
2023/02/05 20:40:11;;;;;;;18.15;3.38;;;;;;;;;;4894521;28;20057;-69
2023/02/05 20:42:40;;;;;;;14.48;3.00;;;;;;;;;;4933727;28;20101;-70
2023/02/05 20:45:10;;;;;;;14.30;2.88;;;;;;;;;;4886921;28;20051;-69
2023/02/05 20:47:39;;;;;;;14.25;3.60;;;;;;;;;;4897696;28;20195;-71
2023/02/05 20:50:08;;;;;;;17.13;3.20;;;;;;;;;;4917570;28;20047;-69
2023/02/05 20:52:37;;;;;;;18.90;3.75;;;;;;;;;;4932940;28;20051;-70
2023/02/05 20:55:13;;;;;;;18.80;3.55;;;;;;;;;;4896142;28;20050;-70
2023/02/05 20:57:40;;;;;;;14.38;2.83;;;;;;;;;;4948765;28;20137;-70
2023/02/05 21:00:09;;;;;;;31.30;4.35;;;;;;;;;;4919806;28;20063;-70
2023/02/05 21:02:37;;;;;;;19.33;3.70;;;;;;;;;;4952433;28;20042;-69
2023/02/05 21:05:05;;;;;;;21.08;3.50;;;;;;;;;;4945620;28;20046;-69
2023/02/05 21:07:39;;;;;;;16.15;3.17;;;;;;;;;;4984422;28;20049;-69
2023/02/05 21:10:24;;;;;;;21.23;3.35;;;;;;;;;;4983424;28;20053;-71
2023/02/05 21:12:52;;;;;;;13.88;3.15;;;;;;;;;;5013236;28;20095;-71
2023/02/05 21:15:19;;;;;;;16.00;2.83;;;;;;;;;;4987034;28;20184;-70
2023/02/05 21:17:45;;;;;;;20.17;3.22;;;;;;;;;;4970592;28;20074;-69
2023/02/05 21:27:58;;;;;;;20.85;3.28;;;;;;;;;;5010631;27;20465;-69
2023/02/05 21:30:25;;;;;;;13.02;2.42;;;;;;;;;;4938329;28;20056;-71
2023/02/05 21:32:54;;;;;;;18.58;2.70;;;;;;;;;;4956997;28;20058;-70
2023/02/05 21:40:38;;;;;;;18.25;2.35;;;;;;;;;;4974455;27;20382;-71
2023/02/05 21:45:31;;;;;;;15.32;2.67;;;;;;;;;;4898398;28;20129;-71
2023/02/05 21:47:57;;;;;;;15.63;2.70;;;;;;;;;;4928840;28;20056;-70
2023/02/05 21:50:24;;;;;;;12.65;2.55;;;;;;;;;;4965761;28;20055;-70
2023/02/05 21:52:57;;;;;;;16.20;2.92;;;;;;;;;;4989203;28;20048;-69
2023/02/05 21:55:25;;;;;;;17.10;2.55;;;;;;;;;;4974295;28;20082;-70
2023/02/05 21:57:56;;;;;;;14.57;2.25;;;;;;;;;;4998539;28;20418;-70
2023/02/05 22:00:24;;;;;;;11.52;2.85;;;;;;;;;;5011774;28;20099;-70
2023/02/05 22:02:51;;;;;;;16.30;2.88;;;;;;;;;;4996599;28;20052;-70
2023/02/05 22:05:18;;;;;;;17.25;2.97;;;;;;;;;;5005878;28;20045;-70
2023/02/05 22:07:45;;;;;;;14.65;2.70;;;;;;;;;;4961270;28;20306;-71
2023/02/05 22:10:13;;;;;;;14.93;2.38;;;;;;;;;;5017862;28;20147;-70
2023/02/05 22:12:39;;;;;;;14.65;2.95;;;;;;;;;;5015318;28;20047;-70
2023/02/05 22:15:18;;;;;;;11.55;2.67;;;;;;;;;;4954166;28;20088;-69
2023/02/05 22:17:45;;;;;;;17.80;3.13;;;;;;;;;;5059670;28;20045;-70
2023/02/05 22:20:12;;;;;;;8.13;2.42;;;;;;;;;;5015400;28;20076;-69
2023/02/05 22:22:39;;;;;;;10.20;2.40;;;;;;;;;;4930354;28;20075;-69
2023/02/05 22:25:07;;;;;;;12.38;3.60;;;;;;;;;;4924910;28;20070;-69
2023/02/05 22:27:45;;;;;;;11.23;2.45;;;;;;;;;;4964889;28;20050;-70
2023/02/05 22:32:41;;;;;;;9.48;2.38;;;;;;;;;;4875705;29;20164;-68
2023/02/05 22:40:01;;;;;;;9.82;2.15;;;;;;;;;;4885922;28;20059;-69
2023/02/05 22:42:28;;;;;;;7.68;2.63;;;;;;;;;;4939051;28;20145;-69
2023/02/05 22:44:55;;;;;;;17.98;2.88;;;;;;;;;;4970621;28;20292;-69
2023/02/05 22:47:22;;;;;;;12.85;2.60;;;;;;;;;;4949705;28;20069;-70
2023/02/05 22:50:03;;;;;;;;;;;;;;;;;;;;;
2023/02/05 22:52:31;;;;;;;13.60;2.47;;;;;;;;;;4948154;28;20065;-70
2023/02/05 22:54:57;;;;;;;14.23;3.33;;;;;;;;;;4945166;28;20058;-69
2023/02/05 22:57:24;;;;;;;12.00;2.55;;;;;;;;;;4933812;28;20112;-69
2023/02/05 22:59:51;;;;;;;8.23;2.20;;;;;;;;;;4933152;28;20139;-68
2023/02/05 23:02:19;;;;;;;11.20;2.50;;;;;;;;;;4933760;28;20058;-70
2023/02/05 23:04:45;;;;;;;9.43;2.53;;;;;;;;;;4990192;28;20063;-69
2023/02/05 23:07:16;;;;;;;14.35;2.75;;;;;;;;;;4995433;28;20064;-70
2023/02/05 23:09:43;;;;;;;7.70;1.83;;;;;;;;;;4969216;28;20399;-68
2023/02/05 23:12:10;;;;;;;10.82;2.25;;;;;;;;;;4988624;28;20060;-69
2023/02/05 23:14:45;;;;;;;11.88;2.33;;;;;;;;;;4978579;28;20084;-70
2023/02/05 23:17:14;;;;;;;14.23;2.83;;;;;;;;;;4930730;28;20058;-70
2023/02/05 23:19:45;;;;;;;11.55;2.55;;;;;;;;;;4935441;28;20056;-69
2023/02/05 23:22:12;;;;;;;;;;;;;;;;;;4957443;28;20065;-69
2023/02/05 23:24:43;;;;;;;10.68;2.60;;;;;;;;;;5006762;28;19924;-69
2023/02/05 23:27:10;;;;;;;9.30;2.55;;;;;;;;;;4989353;28;20059;-69
2023/02/05 23:29:45;;;;;;;12.15;2.78;;;;;;;;;;5011464;28;20097;-69
2023/02/05 23:32:13;;;;;;;7.53;1.92;;;;;;;;;;4975912;28;20203;-70
2023/02/05 23:34:43;;;;;;;9.48;2.40;;;;;;;;;;4971332;28;20057;-69
2023/02/05 23:37:15;;;;;;;14.18;2.47;;;;;;;;;;4963250;28;20053;-69
2023/02/05 23:39:43;;;;;;;12.73;2.30;;;;;;;;;;5004574;28;20056;-69
2023/02/05 23:42:17;;;;;;;12.30;2.42;;;;;;;;;;4992217;28;20048;-69
2023/02/05 23:44:44;;;;;;;9.45;3.00;;;;;;;;;;5055494;28;20049;-68
2023/02/05 23:47:17;;;;;;;12.70;2.30;;;;;;;;;;4975272;28;20057;-69
2023/02/05 23:49:44;;;;;;;11.50;2.55;;;;;;;;;;4988949;28;20074;-70
2023/02/05 23:52:13;;;;;;;10.35;2.60;;;;;;;;;;5016175;28;20205;-69
2023/02/05 23:54:39;;;;;;;;;;;;;;;;;;5027310;28;20059;-69
2023/02/05 23:57:08;;;;;;;6.75;2.10;;;;;;;;;;5032182;28;19928;-69
2023/02/05 23:59:35;;;;;;;;;;;;;;;;;;5023489;28;20071;-71
